Flight Track Log - Related Links

Times and Time Zones

All times are in EDT time to prevent confusion due to time zone crossing. See the N745VJ flight status page for this flight to view local times or setup timezone preferences in your user account.

Time Position Orientation Groundspeed Altitude Reporting Facility
EDT Latitude Longitude Course Direction KTS MPH feet Rate Location/Type
Wed 08:10:27 AM 42.3500 -71.0167 231° Southwest 153 176 600  Level KA90
Wed 08:12:40 AM 42.2761 -71.1381 231° Southwest 224 258 5,600 2,580 Climbing Boston Center
Wed 08:13:40 AM 42.2461 -71.2342 247° West 245 282 8,900 2,700 Climbing Boston Center
Wed 08:14:40 AM 42.2222 -71.3439 254° West 276 318 11,000 1,800 Climbing Boston Center
Wed 08:15:40 AM 42.1964 -71.4817 256° West 344 396 12,500 1,450 Climbing Boston Center
Wed 08:16:40 AM 42.1600 -71.6336 252° West 390 449 13,900 2,050 Climbing Boston Center
Wed 08:17:40 AM 42.1275 -71.7822 254° West 417 480 16,600 2,700 Climbing Boston Center
Wed 08:18:40 AM 42.0992 -71.9253 255° West 417 480 19,300 2,500 Climbing Boston Center
Wed 08:19:40 AM 42.0706 -72.0653 255° West 407 468 21,600 1,333 Climbing Boston Center
Wed 08:21:00 AM 42.0067 -72.2298 246° West  Level FlightAware Approximate
Wed 08:21:40 AM 41.9772 -72.3675 246° West 441 507 23,300  Level Boston Center
Wed 08:22:40 AM 41.8961 -72.5097 233° Southwest 464 534 24,600 1,300 Climbing Boston Center
Wed 08:23:40 AM 41.8144 -72.6489 232° Southwest 485 558 25,900 1,650 Climbing Boston Center
Wed 08:24:40 AM 41.7308 -72.7989 233° Southwest 492 566 27,900 1,950 Climbing Boston Center
Wed 08:25:40 AM 41.6511 -72.9403 233° Southwest 492 566 29,800 2,150 Climbing Boston Center
Wed 08:26:40 AM 41.5692 -73.0839 233° Southwest 476 548 32,200 2,000 Climbing Boston Center
Wed 08:27:40 AM 41.5039 -73.1994 233° Southwest 454 522 33,800 900 Climbing Boston Center
Wed 08:28:40 AM 41.4278 -73.3344 233° Southwest 448 516 34,000 33 Climbing Boston Center
Wed 08:30:40 AM 41.2736 -73.5981 232° Southwest 455 524 33,900 -33 Descending New York Center
Wed 08:31:41 AM 41.1953 -73.7297 232° Southwest 461 531 33,900 50 Level New York Center
Wed 08:32:41 AM 41.1147 -73.8639 231° Southwest 461 531 34,000 -303 Climbing New York Center
Wed 08:33:40 AM 41.0364 -73.9978 232° Southwest 461 531 33,300 -1,563 Descending New York Center
Wed 08:34:40 AM 40.9597 -74.1261 232° Southwest 461 531 30,900 -2,492 Descending New York Center
Wed 08:35:38 AM 40.8789 -74.2539 230° Southwest 461 531 28,400 -1,462 Descending New York Center
Wed 08:36:39 AM 40.8022 -74.3814 232° Southwest 455 524 28,000 -198 Descending New York Center
Wed 08:37:39 AM 40.7211 -74.5142 231° Southwest 455 524 28,000 -744 Level New York Center
Wed 08:38:40 AM 40.6439 -74.6439 232° Southwest 455 524 26,500 -1,800 Descending New York Center
Wed 08:39:39 AM 40.5603 -74.7756 230° Southwest 455 524 24,400 -2,100 Descending New York Center
Wed 08:40:40 AM 40.4728 -74.8961 226° Southwest 465 535 22,300 -1,210 Descending New York Center
Wed 08:41:38 AM 40.4081 -75.0203 236° Southwest 452 520 22,000 -151 Descending New York Center
Wed 08:42:39 AM 40.3539 -75.1286 237° Southwest 405 466 22,000  Level New York Center
Wed 08:43:39 AM 40.3000 -75.2369 237° Southwest 372 428 22,000  Level New York Center
Wed 08:44:39 AM 40.2461 -75.3394 235° Southwest 354 407 22,000 -50 Level New York Center
Wed 08:45:38 AM 40.1967 -75.4314 235° Southwest 340 391 21,900  Descending New York Center
Wed 08:46:39 AM 40.1208 -75.5022 216° Southwest 330 380 22,000 49 Climbing New York Center
Wed 08:47:40 AM 40.0453 -75.5675 213° Southwest 324 373 22,000  Level New York Center
Wed 08:48:41 AM 39.9656 -75.6297 211° Southwest 335 386 22,000  Level New York Center
Wed 08:49:38 AM 39.8950 -75.7222 225° Southwest 340 391 22,000 -356 Level New York Center
Wed 08:50:39 AM 39.8428 -75.8186 235° Southwest 333 383 21,300 -1,033 Descending New York Center
Wed 08:51:40 AM 39.7931 -75.9125 235° Southwest 328 377 19,900 -1,377 Descending New York Center
Wed 08:52:41 AM 39.7683 -75.9997 250° West 304 350 18,500 -1,289 Descending New York Center
Wed 08:53:41 AM 39.7678 -76.1050 270° West 296 341 17,300 -1,424 Descending New York Center
Wed 08:54:39 AM 39.7650 -76.2128 268° West 288 331 15,700 -1,611 Descending New York Center
Wed 08:56:10 AM 39.7667 -76.3667 271° West 272 313 13,300 -1,521 Descending Potomac TRACON
Wed 08:57:05 AM 39.7333 -76.4500 243° Southwest 272 313 12,000 -678 Descending Potomac TRACON
Wed 08:58:05 AM 39.6667 -76.4833 201° Southwest 286 329 12,000  Level Potomac TRACON
Wed 08:59:05 AM 39.5833 -76.5167 197° South 285 328 12,000  Level Potomac TRACON
Wed 09:00:05 AM 39.5167 -76.5333 191° South 285 328 12,000  Level Potomac TRACON
Wed 09:01:05 AM 39.4333 -76.5667 197° South 285 328 12,000 -365 Level Potomac TRACON
Wed 09:02:00 AM 39.3667 -76.5833 191° South 285 328 11,300 -991 Descending Potomac TRACON
Wed 09:03:00 AM 39.2833 -76.6167 197° South 280 322 10,100 -650 Descending Potomac TRACON
Wed 09:04:00 AM 39.2167 -76.6500 201° Southwest 230 265 10,000 -50 Descending Potomac TRACON
Wed 09:05:01 AM 39.1500 -76.6500 180° South 255 293 10,000  Level Potomac TRACON
Wed 09:05:55 AM 39.1500 -76.7333 270° West 256 295 10,000  Level Potomac TRACON
Wed 09:06:55 AM 39.2167 -76.7333 360° North 284 327 10,000  Level Potomac TRACON
Wed 09:07:55 AM 39.2833 -76.7167 11° North 249 287 10,000  Level Potomac TRACON
Wed 09:08:50 AM 39.3500 -76.6833 21° North 251 289 10,000  Level Potomac TRACON
Wed 09:09:45 AM 39.3667 -76.6167 72° East 288 331 10,000  Level Potomac TRACON
Wed 09:10:45 AM 39.3000 -76.6167 180° South 231 266 10,000  Level Potomac TRACON
Wed 09:11:45 AM 39.2333 -76.6333 191° South 225 259 10,000  Level Potomac TRACON
Wed 09:12:46 AM 39.1833 -76.6667 207° Southwest 222 255 10,000  Level Potomac TRACON
Wed 09:13:46 AM 39.1500 -76.7167 229° Southwest 258 297 10,000  Level Potomac TRACON
Wed 09:14:40 AM 39.2000 -76.7500 333° Northwest 282 325 10,000  Level Potomac TRACON
Wed 09:15:40 AM 39.2667 -76.7167 21° North 255 293 10,000  Level Potomac TRACON
Wed 09:16:34 AM 39.3167 -76.7000 14° North 253 291 10,000  Level Potomac TRACON
Wed 09:17:34 AM 39.3833 -76.6500 30° Northeast 266 306 10,000  Level Potomac TRACON
Wed 09:18:34 AM 39.3333 -76.6000 142° Southeast 267 307 10,000  Level Potomac TRACON
Wed 09:19:34 AM 39.2667 -76.6333 201° Southwest 233 268 10,000  Level Potomac TRACON
Wed 09:20:29 AM 39.2167 -76.6500 194° South 230 265 10,000  Level Potomac TRACON
Wed 09:21:29 AM 39.1667 -76.7000 218° Southwest 223 257 10,000  Level Potomac TRACON
Wed 09:22:29 AM 39.1167 -76.7500 218° Southwest 221 254 10,000 -100 Level Potomac TRACON
Wed 09:23:29 AM 39.0833 -76.8167 237° Southwest 218 251 9,800 -900 Descending Potomac TRACON
Wed 09:24:29 AM 39.0667 -76.8833 252° West 219 252 8,200 -1,600 Descending Potomac TRACON

Login

Don't have an account? Register now (free) for customized features, flight alerts, and more!